createdAt,value
2023-04-09T00:01:47.359Z,28.90
2023-04-09T00:04:19.687Z,28.70
2023-04-09T00:06:49.444Z,30.63
2023-04-09T00:09:21.929Z,30.40
2023-04-09T00:11:51.667Z,30.90
2023-04-09T00:14:21.556Z,31.53
2023-04-09T00:16:51.316Z,29.67
2023-04-09T00:19:21.433Z,32.00
2023-04-09T00:21:51.350Z,31.60
2023-04-09T00:24:23.810Z,35.37
2023-04-09T00:26:53.681Z,30.30
2023-04-09T00:29:23.666Z,32.70
2023-04-09T00:31:53.449Z,30.53
2023-04-09T00:34:23.199Z,32.00
2023-04-09T00:36:52.979Z,31.73
2023-04-09T00:39:25.450Z,30.07
2023-04-09T00:42:00.244Z,31.83
2023-04-09T00:44:30.022Z,28.83
2023-04-09T00:47:03.241Z,30.33
2023-04-09T00:49:33.376Z,31.27
2023-04-09T00:52:03.361Z,30.00
2023-04-09T00:54:36.002Z,30.03
2023-04-09T00:57:06.618Z,31.17
2023-04-09T00:59:36.676Z,30.07
2023-04-09T01:02:06.501Z,28.90
2023-04-09T01:04:36.957Z,28.40
2023-04-09T01:07:16.099Z,26.57
2023-04-09T01:09:54.211Z,26.90
2023-04-09T01:12:33.748Z,25.73
2023-04-09T01:15:08.624Z,25.67
2023-04-09T01:17:44.463Z,27.50
2023-04-09T01:20:19.982Z,32.50
2023-04-09T01:23:04.147Z,29.47
2023-04-09T01:25:47.991Z,32.67
2023-04-09T01:28:23.744Z,29.40
2023-04-09T01:31:00.449Z,31.90
2023-04-09T01:33:32.494Z,30.60
2023-04-09T01:36:04.376Z,31.80
2023-04-09T01:38:35.324Z,30.23
2023-04-09T01:41:06.976Z,31.07
2023-04-09T01:43:41.007Z,28.53
2023-04-09T01:46:12.462Z,30.53
2023-04-09T01:48:42.375Z,32.20
2023-04-09T01:51:14.301Z,30.80
2023-04-09T01:53:44.617Z,28.50
2023-04-09T01:56:14.480Z,28.40
2023-04-09T01:58:46.894Z,31.13
2023-04-09T02:01:23.472Z,28.10
2023-04-09T02:03:59.322Z,30.10
2023-04-09T02:06:37.538Z,30.07
2023-04-09T02:09:11.098Z,28.80
2023-04-09T02:11:43.594Z,30.50
2023-04-09T02:14:16.402Z,28.70
2023-04-09T02:16:46.700Z,27.80
2023-04-09T02:19:16.742Z,24.67
2023-04-09T02:21:46.919Z,25.30
2023-04-09T02:24:16.643Z,24.70
2023-04-09T02:26:46.385Z,25.10
2023-04-09T02:29:19.228Z,25.50
2023-04-09T02:31:50.308Z,24.87
2023-04-09T02:34:20.145Z,24.93
2023-04-09T02:36:51.380Z,21.90
2023-04-09T02:39:21.302Z,22.70
2023-04-09T02:41:51.071Z,22.20
2023-04-09T02:44:23.471Z,22.20
2023-04-09T02:46:54.292Z,24.03
2023-04-09T02:49:24.079Z,25.10
2023-04-09T02:51:53.954Z,25.40
2023-04-09T02:54:23.870Z,29.03
2023-04-09T02:56:53.608Z,27.43
2023-04-09T02:59:25.907Z,31.20
2023-04-09T03:01:55.766Z,31.07
2023-04-09T03:04:25.674Z,26.57
2023-04-09T03:06:55.510Z,28.57
2023-04-09T03:09:25.297Z,28.40
2023-04-09T03:11:56.473Z,27.40
2023-04-09T03:14:28.846Z,27.10
2023-04-09T03:16:58.608Z,27.57
2023-04-09T03:19:28.330Z,26.50
2023-04-09T03:21:58.198Z,25.73
2023-04-09T03:24:30.435Z,27.30
2023-04-09T03:27:03.864Z,28.80
2023-04-09T03:29:37.919Z,28.50
2023-04-09T03:32:08.388Z,27.33
2023-04-09T03:34:38.211Z,26.80
2023-04-09T03:37:08.420Z,27.53
2023-04-09T03:39:38.190Z,27.60
2023-04-09T03:42:07.976Z,25.60
2023-04-09T03:44:49.231Z,25.30
2023-04-09T03:47:27.499Z,22.20
2023-04-09T03:49:58.208Z,23.73
2023-04-09T03:52:30.957Z,25.00
2023-04-09T03:55:09.005Z,25.73
2023-04-09T03:57:39.538Z,27.07
2023-04-09T04:00:16.365Z,25.33
2023-04-09T04:03:14.972Z,30.10
2023-04-09T04:06:04.917Z,29.83
2023-04-09T04:08:46.073Z,29.90
2023-04-09T04:11:15.962Z,32.70
2023-04-09T04:13:45.747Z,31.40
2023-04-09T04:16:18.133Z,33.33
2023-04-09T04:18:48.103Z,34.40
2023-04-09T04:21:19.215Z,33.57
2023-04-09T04:23:57.647Z,35.20
2023-04-09T04:26:30.598Z,36.03
2023-04-09T04:29:00.560Z,38.90
2023-04-09T04:31:55.594Z,37.20
2023-04-09T04:34:28.084Z,39.83
2023-04-09T04:37:06.370Z,36.03
2023-04-09T04:39:37.014Z,37.73
2023-04-09T04:42:12.296Z,40.53
2023-04-09T04:44:42.312Z,34.10
2023-04-09T04:47:21.275Z,42.27
2023-04-09T04:49:51.167Z,34.03
2023-04-09T04:52:21.493Z,34.73
2023-04-09T04:54:54.504Z,45.07
2023-04-09T04:57:26.565Z,38.53
2023-04-09T04:59:56.883Z,36.40
2023-04-09T05:02:29.922Z,36.37
2023-04-09T05:05:18.505Z,36.37
2023-04-09T05:07:54.129Z,37.40
2023-04-09T05:10:25.025Z,39.80
2023-04-09T05:12:54.857Z,43.90
2023-04-09T05:15:34.720Z,39.03
2023-04-09T05:18:07.099Z,37.37
2023-04-09T05:20:37.816Z,37.60
2023-04-09T05:23:12.734Z,38.27
2023-04-09T05:25:51.637Z,36.00
2023-04-09T05:28:30.051Z,37.17
2023-04-09T05:31:13.376Z,35.70
2023-04-09T05:33:53.052Z,38.20
2023-04-09T05:36:27.641Z,35.47
2023-04-09T05:38:57.426Z,34.97
2023-04-09T05:41:27.218Z,33.27
2023-04-09T05:44:15.613Z,36.20
2023-04-09T05:46:46.315Z,38.20
2023-04-09T05:49:22.469Z,36.47
2023-04-09T05:51:55.625Z,37.87
2023-04-09T05:54:29.797Z,39.87
2023-04-09T05:56:59.944Z,37.87
2023-04-09T05:59:29.765Z,36.13
2023-04-09T06:01:59.565Z,38.10
2023-04-09T06:04:31.976Z,40.07
2023-04-09T06:07:03.299Z,41.63
2023-04-09T06:09:33.120Z,39.90
2023-04-09T06:12:04.752Z,38.50
2023-04-09T06:14:35.316Z,40.70
2023-04-09T06:17:05.052Z,39.50
2023-04-09T06:19:37.401Z,39.30
2023-04-09T06:22:07.605Z,39.27
2023-04-09T06:24:37.394Z,38.70
2023-04-09T06:27:08.012Z,37.83
2023-04-09T06:29:37.765Z,35.97
2023-04-09T06:32:08.620Z,38.37
2023-04-09T06:34:41.108Z,37.67
2023-04-09T06:37:10.893Z,35.23
2023-04-09T06:39:44.807Z,35.37
2023-04-09T06:42:23.925Z,40.20
2023-04-09T06:45:00.772Z,33.80
2023-04-09T06:47:30.565Z,36.30
2023-04-09T06:50:02.899Z,33.33
2023-04-09T06:52:32.692Z,36.73
2023-04-09T06:55:02.466Z,34.30
2023-04-09T06:57:32.249Z,34.57
2023-04-09T07:00:02.033Z,32.83
2023-04-09T07:02:31.986Z,32.43
2023-04-09T07:05:04.816Z,31.97
2023-04-09T07:07:34.785Z,32.60
2023-04-09T07:10:06.511Z,30.80
2023-04-09T07:12:37.618Z,33.57
2023-04-09T07:15:09.461Z,34.63
2023-04-09T07:17:39.252Z,32.13
2023-04-09T07:20:13.029Z,32.90
2023-04-09T07:22:42.807Z,31.80
2023-04-09T07:25:13.070Z,32.70
2023-04-09T07:27:42.915Z,32.10
2023-04-09T07:30:13.461Z,32.30
2023-04-09T07:32:43.289Z,31.67
2023-04-09T07:35:15.913Z,31.20
2023-04-09T07:37:45.697Z,33.33
2023-04-09T07:40:15.732Z,33.80
2023-04-09T07:42:45.518Z,35.00
2023-04-09T07:45:15.489Z,33.40
2023-04-09T07:47:45.524Z,34.47
2023-04-09T07:50:17.864Z,35.83
2023-04-09T07:52:47.628Z,35.00
2023-04-09T07:55:18.584Z,34.63
2023-04-09T07:57:48.523Z,32.27
2023-04-09T08:00:19.544Z,34.87
2023-04-09T08:02:49.630Z,32.90
2023-04-09T08:05:22.234Z,32.73
2023-04-09T08:07:53.955Z,33.33
2023-04-09T08:10:23.804Z,33.43
2023-04-09T08:12:53.643Z,33.40
2023-04-09T08:15:23.582Z,33.17
2023-04-09T08:17:53.478Z,33.47
2023-04-09T08:20:26.067Z,32.03
2023-04-09T08:22:55.885Z,33.27
2023-04-09T08:25:25.892Z,34.43
2023-04-09T08:27:55.622Z,34.53
2023-04-09T08:30:25.351Z,33.93
2023-04-09T08:32:55.221Z,33.00
2023-04-09T08:35:28.625Z,34.70
2023-04-09T08:37:59.069Z,33.77
2023-04-09T08:40:28.892Z,34.60
2023-04-09T08:42:59.605Z,32.40
2023-04-09T08:45:29.668Z,33.40
2023-04-09T08:48:01.056Z,34.30
2023-04-09T08:50:34.676Z,33.00
2023-04-09T08:53:07.519Z,33.40
2023-04-09T08:55:37.824Z,31.53
2023-04-09T08:58:09.789Z,29.37
2023-04-09T09:00:41.029Z,30.30
2023-04-09T09:03:13.886Z,30.33
2023-04-09T09:05:50.173Z,30.13
2023-04-09T09:08:27.308Z,28.40
2023-04-09T09:10:57.666Z,29.30
2023-04-09T09:13:29.501Z,28.60
2023-04-09T09:16:16.231Z,28.70
2023-04-09T09:18:48.369Z,28.53
2023-04-09T09:21:21.223Z,28.97
2023-04-09T09:23:51.691Z,26.90
2023-04-09T09:26:23.318Z,28.13
2023-04-09T09:28:53.709Z,29.40
2023-04-09T09:31:26.481Z,27.27
2023-04-09T09:33:57.163Z,27.83
2023-04-09T09:36:37.460Z,26.20
2023-04-09T09:39:10.669Z,26.73
2023-04-09T09:41:41.474Z,26.67
2023-04-09T09:44:13.112Z,25.70
2023-04-09T09:46:44.306Z,25.77
2023-04-09T09:49:14.106Z,26.43
2023-04-09T09:51:48.254Z,25.60
2023-04-09T09:54:26.902Z,25.40
2023-04-09T09:57:04.248Z,26.57
2023-04-09T09:59:42.587Z,25.60
2023-04-09T10:02:22.558Z,26.13
2023-04-09T10:04:54.537Z,25.23
2023-04-09T10:07:28.251Z,26.03
2023-04-09T10:10:00.972Z,25.57
2023-04-09T10:12:38.705Z,25.50
2023-04-09T10:15:11.012Z,26.07
2023-04-09T10:17:44.185Z,25.53
2023-04-09T10:20:20.908Z,24.73
2023-04-09T10:23:02.015Z,25.90
2023-04-09T10:25:32.615Z,25.63
2023-04-09T10:28:03.541Z,24.73
2023-04-09T10:30:37.564Z,27.77
2023-04-09T10:33:16.837Z,23.47
2023-04-09T10:35:50.002Z,24.10
2023-04-09T10:38:36.558Z,26.87
2023-04-09T10:41:16.797Z,28.70
2023-04-09T10:43:46.587Z,28.23
2023-04-09T10:46:30.323Z,28.60
2023-04-09T10:49:13.912Z,28.67
2023-04-09T10:51:45.364Z,27.23
2023-04-09T10:54:44.428Z,28.13
2023-04-09T10:57:26.470Z,28.30
2023-04-09T10:59:58.609Z,27.60
2023-04-09T11:03:08.122Z,28.20
2023-04-09T11:05:40.979Z,30.00
2023-04-09T11:08:13.255Z,26.53
2023-04-09T11:10:51.183Z,26.23
2023-04-09T11:13:23.071Z,27.60
2023-04-09T11:15:55.609Z,27.20
2023-04-09T11:18:27.891Z,26.53
2023-04-09T11:20:59.749Z,27.70
2023-04-09T11:23:31.350Z,25.27
2023-04-09T11:26:05.813Z,24.70
2023-04-09T11:28:38.376Z,26.70
2023-04-09T11:31:09.387Z,25.67
2023-04-09T11:33:41.527Z,23.57
2023-04-09T11:36:12.117Z,25.70
2023-04-09T11:38:42.391Z,25.50
2023-04-09T11:41:15.589Z,22.60
2023-04-09T11:43:45.843Z,25.00
2023-04-09T11:46:16.435Z,23.07
2023-04-09T11:48:46.929Z,22.90
2023-04-09T11:51:17.640Z,23.60
2023-04-09T11:53:48.290Z,23.50
2023-04-09T11:56:22.389Z,22.10
2023-04-09T11:58:52.908Z,21.37
2023-04-09T12:01:48.078Z,22.77
2023-04-09T12:04:40.972Z,20.70
2023-04-09T12:07:36.981Z,21.07
2023-04-09T12:10:51.426Z,20.13
2023-04-09T12:14:39.222Z,19.67
2023-04-09T12:26:16.084Z,15.90
2023-04-09T12:34:26.545Z,17.00
2023-04-09T12:38:16.302Z,16.57
2023-04-09T12:41:50.985Z,17.60
2023-04-09T12:45:35.396Z,20.50
2023-04-09T12:49:22.431Z,20.67
2023-04-09T12:51:53.900Z,25.60
2023-04-09T12:54:25.484Z,23.10
2023-04-09T12:56:57.221Z,24.30
2023-04-09T12:59:38.582Z,24.57
2023-04-09T13:02:13.855Z,26.20
2023-04-09T13:04:45.997Z,20.53
2023-04-09T13:07:17.993Z,25.47
2023-04-09T13:09:50.673Z,24.80
2023-04-09T13:12:21.722Z,28.20
2023-04-09T13:14:52.030Z,30.57
2023-04-09T13:17:25.249Z,30.80
2023-04-09T13:19:55.786Z,37.27
2023-04-09T13:22:27.075Z,38.07
2023-04-09T13:24:59.148Z,37.33
2023-04-09T13:27:40.865Z,37.57
2023-04-09T13:30:15.451Z,36.60
2023-04-09T13:52:37.551Z,37.00
2023-04-09T13:55:09.053Z,37.47
2023-04-09T13:57:39.111Z,35.27
2023-04-09T14:00:11.071Z,36.90
2023-04-09T14:02:42.695Z,34.20
2023-04-09T14:05:13.016Z,35.03
2023-04-09T14:07:45.519Z,36.23
2023-04-09T14:10:16.071Z,33.67
2023-04-09T18:15:14.569Z,25.67
2023-04-09T18:17:49.560Z,22.60
2023-04-09T18:20:22.987Z,23.40
2023-04-09T18:22:59.411Z,22.17
2023-04-09T18:25:35.555Z,26.27
2023-04-09T18:28:09.000Z,25.10
2023-04-09T18:30:46.023Z,23.57
2023-04-09T18:33:21.308Z,25.87
2023-04-09T18:35:54.332Z,25.30
2023-04-09T18:38:30.080Z,25.90
2023-04-09T18:41:16.195Z,25.73
2023-04-09T19:08:44.813Z,26.17
2023-04-09T19:20:13.758Z,29.73
2023-04-09T19:22:45.223Z,26.50
2023-04-09T19:25:19.547Z,23.30
2023-04-09T19:27:50.884Z,25.67
2023-04-09T19:30:23.944Z,24.27
2023-04-09T19:57:39.923Z,25.37
2023-04-09T20:03:12.254Z,26.07
2023-04-09T20:10:00.551Z,28.93
2023-04-09T20:14:34.402Z,30.03
2023-04-09T20:18:23.157Z,28.70
2023-04-09T20:21:42.988Z,30.17
2023-04-09T20:29:34.194Z,31.27
2023-04-09T21:05:39.629Z,25.17
2023-04-09T22:00:26.824Z,28.30
2023-04-09T23:06:37.501Z,28.23
2023-04-09T23:45:58.684Z,26.30
2023-04-09T23:48:41.986Z,28.10
